Time;durP1;ratioP1;P1;durP2;ratioP2;P2;SDS_P1;SDS_P2;PMS_P1;PMS_P2;Temp;Humidity;BMP_temperature;BMP_pressure;BME280_temperature;BME280_humidity;BME280_pressure;Samples;Min_cycle;Max_cycle;Signal;HPM_P1;HPM_P2
2021/05/12 00:01:33;;;;;;;2.25;1.30;;;;;;;8.86;100.00;100931.25;1589694;90;21018;-83
2021/05/12 00:03:59;;;;;;;2.37;1.50;;;;;;;8.89;100.00;100933.46;1589686;90;21177;-83
2021/05/12 00:06:26;;;;;;;4.75;1.72;;;;;;;8.83;100.00;100931.73;1589526;90;21668;-82
2021/05/12 00:08:52;;;;;;;3.27;1.47;;;;;;;8.83;100.00;100942.48;1589160;90;21642;-82
2021/05/12 00:11:18;;;;;;;4.37;2.15;;;;;;;8.84;100.00;100934.17;1589785;90;21245;-82
2021/05/12 00:13:44;;;;;;;3.22;1.85;;;;;;;8.84;100.00;100920.73;1589811;89;20995;-84
2021/05/12 00:16:10;;;;;;;3.55;2.10;;;;;;;8.83;100.00;100926.36;1589817;90;21700;-83
2021/05/12 00:18:39;;;;;;;3.60;1.90;;;;;;;8.79;100.00;100925.19;1589621;90;21209;-83
2021/05/12 00:21:08;;;;;;;2.98;1.80;;;;;;;8.82;100.00;100921.52;1589527;89;21607;-82
2021/05/12 00:23:49;;;;;;;3.47;1.70;;;;;;;8.87;100.00;100916.22;1589464;90;21649;-83
2021/05/12 00:26:13;;;;;;;5.80;2.22;;;;;;;8.80;100.00;100920.12;1589399;90;21271;-83
2021/05/12 00:28:40;;;;;;;5.45;2.22;;;;;;;8.79;100.00;100929.22;1589516;90;21195;-83
2021/05/12 00:31:05;;;;;;;4.40;2.25;;;;;;;8.81;100.00;100927.12;1589526;90;21137;-83
2021/05/12 00:33:31;;;;;;;7.62;3.02;;;;;;;8.84;100.00;100922.61;1585123;89;21012;-83
2021/05/12 00:35:57;;;;;;;6.90;3.12;;;;;;;8.80;100.00;100920.94;1572912;90;21655;-82
2021/05/12 00:38:23;;;;;;;5.30;2.42;;;;;;;8.83;100.00;100917.77;1572853;90;21093;-83
2021/05/12 00:40:49;;;;;;;4.53;2.50;;;;;;;8.82;100.00;100916.64;1572993;90;21419;-83
2021/05/12 00:43:14;;;;;;;5.30;2.65;;;;;;;8.88;100.00;100922.41;1582850;88;21045;-83
2021/05/12 00:45:40;;;;;;;5.85;2.83;;;;;;;8.84;100.00;100918.04;1605358;88;20994;-82
2021/05/12 00:48:07;;;;;;;4.10;2.02;;;;;;;8.83;100.00;100915.61;1604487;88;21625;-86
2021/05/12 00:50:33;;;;;;;7.62;3.20;;;;;;;8.85;100.00;100918.85;1603865;88;21173;-84
2021/05/12 00:53:00;;;;;;;5.72;3.15;;;;;;;8.90;100.00;100913.58;1604067;88;21232;-82
2021/05/12 00:55:27;;;;;;;9.78;2.60;;;;;;;8.91;100.00;100904.98;1605003;88;21165;-83
2021/05/12 00:57:53;;;;;;;5.55;2.62;;;;;;;8.84;100.00;100909.17;1586244;88;21660;-82
2021/05/12 01:00:23;;;;;;;4.92;2.72;;;;;;;8.83;100.00;100912.39;1604640;88;21161;-83
2021/05/12 01:02:49;;;;;;;4.47;1.90;;;;;;;8.90;100.00;100918.14;1602592;88;21255;-84
2021/05/12 01:05:39;;;;;;;5.40;2.12;;;;;;;8.82;100.00;100921.52;1602723;87;21266;-83
2021/05/12 01:08:06;;;;;;;5.42;2.45;;;;;;;8.78;100.00;100908.79;1599681;88;21219;-85
2021/05/12 01:10:34;;;;;;;7.05;2.80;;;;;;;8.79;100.00;100911.22;1553721;91;21116;-82
2021/05/12 01:13:00;;;;;;;5.50;2.55;;;;;;;8.81;100.00;100912.34;1554049;91;21179;-82
2021/05/12 01:15:27;;;;;;;5.05;2.70;;;;;;;8.71;100.00;100912.16;1576528;90;21211;-82
2021/05/12 01:18:09;;;;;;;5.55;2.77;;;;;;;8.77;100.00;100913.35;1578669;90;21196;-82
2021/05/12 01:21:00;;;;;;;3.95;1.92;;;;;;;8.76;100.00;100911.70;1596052;89;21191;-83
2021/05/12 01:23:30;;;;;;;6.42;2.70;;;;;;;8.74;100.00;100918.39;1596352;89;21167;-83
2021/05/12 01:25:59;;;;;;;6.10;2.70;;;;;;;8.66;100.00;100912.86;1596539;89;21182;-83
2021/05/12 01:28:28;;;;;;;5.87;2.08;;;;;;;8.60;100.00;100910.60;1596255;89;21179;-83
2021/05/12 01:31:05;;;;;;;5.10;2.42;;;;;;;8.60;100.00;100911.95;1590565;88;21775;-83
2021/05/12 01:33:32;;;;;;;5.03;2.27;;;;;;;8.68;100.00;100916.64;1586852;87;21128;-84
2021/05/12 01:35:59;;;;;;;6.50;2.45;;;;;;;8.51;100.00;100913.91;1607423;88;21099;-82
2021/05/12 01:38:28;;;;;;;8.05;2.65;;;;;;;8.49;100.00;100922.19;1618111;88;21161;-82
2021/05/12 01:40:54;;;;;;;5.70;2.45;;;;;;;8.44;100.00;100920.73;1611546;88;21191;-83
2021/05/12 01:43:21;;;;;;;4.53;2.42;;;;;;;8.46;100.00;100920.52;1601136;89;21224;-83
2021/05/12 01:45:48;;;;;;;5.92;2.12;;;;;;;8.44;100.00;100922.08;1600220;88;21202;-83
2021/05/12 01:48:15;;;;;;;4.47;2.27;;;;;;;8.50;100.00;100914.45;1593228;89;21644;-83
2021/05/12 01:50:41;;;;;;;5.85;2.95;;;;;;;8.45;100.00;100912.98;1614247;88;21215;-82
2021/05/12 01:53:08;;;;;;;5.47;2.95;;;;;;;8.44;100.00;100920.73;1602021;88;21156;-83
2021/05/12 01:55:35;;;;;;;4.83;2.75;;;;;;;8.53;100.00;100914.47;1601901;88;21223;-82
2021/05/12 01:58:02;;;;;;;5.85;2.40;;;;;;;8.45;100.00;100920.23;1601998;88;21096;-82
2021/05/12 02:00:41;;;;;;;6.78;2.52;;;;;;;8.51;100.00;100921.97;1602040;88;21589;-82
2021/05/12 02:03:08;;;;;;;4.25;2.22;;;;;;;8.46;100.00;100919.98;1593594;89;21191;-82
2021/05/12 02:05:36;;;;;;;5.62;2.60;;;;;;;8.50;100.00;100917.12;1593351;89;21024;-82
2021/05/12 02:08:05;;;;;;;4.58;2.70;;;;;;;8.52;100.00;100920.38;1593162;89;21105;-82
2021/05/12 02:10:32;;;;;;;7.50;2.83;;;;;;;8.41;100.00;100921.22;1592935;89;21172;-83
2021/05/12 02:12:58;;;;;;;5.30;2.40;;;;;;;8.29;100.00;100915.84;1593320;89;21169;-82
2021/05/12 02:15:25;;;;;;;5.12;3.00;;;;;;;8.31;100.00;100936.56;1593307;89;21188;-82
2021/05/12 02:17:53;;;;;;;7.05;2.37;;;;;;;8.41;100.00;100926.58;1593295;89;21290;-83
2021/05/12 02:20:26;;;;;;;6.35;2.83;;;;;;;8.27;100.00;100931.92;1593090;89;21415;-83
2021/05/12 02:22:52;;;;;;;5.12;2.62;;;;;;;8.22;100.00;100929.92;1502886;94;21251;-84
2021/05/12 02:25:19;;;;;;;11.33;3.98;;;;;;;8.10;100.00;100934.50;1502737;95;21256;-83
2021/05/12 02:27:45;;;;;;;8.30;3.70;;;;;;;8.15;100.00;100935.96;1503019;95;21229;-84
2021/05/12 02:30:13;;;;;;;6.62;3.37;;;;;;;8.12;100.00;100929.72;1511175;93;21316;-83
2021/05/12 02:32:39;;;;;;;6.90;3.65;;;;;;;8.09;100.00;100931.00;1511244;94;21371;-83
2021/05/12 02:35:08;;;;;;;4.12;2.40;;;;;;;8.13;100.00;100928.66;1519970;92;21206;-83
2021/05/12 02:37:35;;;;;;;5.85;2.80;;;;;;;8.14;100.00;100932.97;1511298;94;21195;-84
2021/05/12 02:40:02;;;;;;;5.20;2.50;;;;;;;8.11;100.00;100936.13;1519773;93;21271;-83
2021/05/12 02:42:28;;;;;;;6.25;2.75;;;;;;;8.11;100.00;100940.95;1511341;94;21224;-83
2021/05/12 02:44:54;;;;;;;4.87;2.12;;;;;;;8.13;100.00;100933.50;1519846;93;21566;-83
2021/05/12 02:47:20;;;;;;;6.87;2.27;;;;;;;8.12;100.00;100943.14;1500292;94;20992;-83
2021/05/12 02:49:46;;;;;;;6.17;3.00;;;;;;;8.07;100.00;100941.15;1530494;92;22509;-82
2021/05/12 02:52:12;;;;;;;5.50;2.95;;;;;;;8.15;100.00;100934.62;1550248;91;20974;-83
2021/05/12 02:54:38;;;;;;;7.05;2.72;;;;;;;8.20;100.00;100936.86;1550182;91;21006;-83
2021/05/12 02:57:05;;;;;;;7.40;3.08;;;;;;;8.14;100.00;100935.66;1550054;91;21931;-83
2021/05/12 02:59:31;;;;;;;5.25;2.77;;;;;;;8.27;100.00;100934.07;1549934;91;21235;-82
2021/05/12 03:01:58;;;;;;;4.47;2.60;;;;;;;8.23;100.00;100920.00;1545413;91;21081;-82
2021/05/12 03:04:23;;;;;;;11.25;3.72;;;;;;;8.19;100.00;100932.55;1550246;91;21363;-83
2021/05/12 03:06:50;;;;;;;5.40;2.62;;;;;;;8.27;100.00;100929.23;1550496;91;21083;-83
2021/05/12 03:09:16;;;;;;;5.33;3.08;;;;;;;8.23;100.00;100940.13;1550441;91;21579;-81
2021/05/12 03:11:42;;;;;;;5.25;2.77;;;;;;;8.37;100.00;100935.61;1556074;90;21054;-82
2021/05/12 03:14:09;;;;;;;5.33;2.55;;;;;;;8.35;100.00;100934.22;1585527;90;22080;-84
2021/05/12 03:16:36;;;;;;;6.95;3.00;;;;;;;8.40;100.00;100936.52;1587824;89;21660;-83
2021/05/12 03:19:05;;;;;;;5.17;3.00;;;;;;;8.35;100.00;100943.61;1606318;86;21517;-83
2021/05/12 03:21:33;;;;;;;5.92;2.65;;;;;;;8.36;100.00;100944.73;1658635;86;22016;-83
2021/05/12 03:24:01;;;;;;;6.25;3.00;;;;;;;8.42;100.00;100943.01;1658593;86;21144;-83
2021/05/12 03:26:28;;;;;;;5.25;2.55;;;;;;;8.43;100.00;100943.82;1602862;89;21154;-82
2021/05/12 03:28:54;;;;;;;5.22;2.90;;;;;;;8.49;100.00;100936.97;1594418;89;21583;-82
2021/05/12 03:31:21;;;;;;;4.90;2.67;;;;;;;8.58;100.00;100947.62;1577959;90;21149;-82
2021/05/12 03:33:48;;;;;;;5.45;2.98;;;;;;;8.63;100.00;100957.14;1577901;90;21898;-82
2021/05/12 03:36:14;;;;;;;6.17;2.75;;;;;;;8.73;100.00;100953.83;1560719;90;21653;-84
2021/05/12 03:38:40;;;;;;;8.08;2.87;;;;;;;8.75;100.00;100951.73;1562294;91;21253;-83
2021/05/12 03:41:07;;;;;;;6.55;3.10;;;;;;;8.80;100.00;100951.84;1560622;91;21235;-83
2021/05/12 03:43:35;;;;;;;5.28;3.15;;;;;;;8.82;100.00;100948.89;1560648;91;21208;-83
2021/05/12 03:46:02;;;;;;;5.95;2.42;;;;;;;8.85;100.00;100942.53;1574772;89;21260;-83
2021/05/12 03:48:29;;;;;;;4.60;2.47;;;;;;;8.72;100.00;100956.77;1537605;92;21199;-85
2021/05/12 03:50:55;;;;;;;3.37;2.22;;;;;;;8.82;100.00;100944.36;1534302;91;21245;-82
2021/05/12 03:53:21;;;;;;;4.65;2.47;;;;;;;8.81;100.00;100952.65;1549677;92;21099;-82
2021/05/12 03:55:47;;;;;;;7.53;2.40;;;;;;;8.79;100.00;100946.16;1557203;92;21014;-82
2021/05/12 03:58:13;;;;;;;6.70;3.42;;;;;;;8.70;100.00;100955.66;1557372;92;21255;-83
2021/05/12 04:00:40;;;;;;;4.95;2.40;;;;;;;8.93;100.00;100954.77;1557169;92;21077;-82
2021/05/12 04:03:06;;;;;;;4.12;2.08;;;;;;;8.74;100.00;100955.48;1557311;92;21779;-84
2021/05/12 04:05:32;;;;;;;7.00;3.42;;;;;;;8.68;100.00;100956.94;1557351;92;20997;-82
2021/05/12 04:07:58;;;;;;;7.55;3.12;;;;;;;8.84;100.00;100966.41;1557223;92;21120;-83
2021/05/12 04:10:24;;;;;;;8.43;3.98;;;;;;;8.82;100.00;100960.98;1557328;92;21237;-83
2021/05/12 04:12:50;;;;;;;7.22;3.12;;;;;;;8.92;100.00;100963.89;1557312;92;21677;-84
2021/05/12 04:15:16;;;;;;;7.60;3.67;;;;;;;8.93;100.00;100965.51;1557282;92;21032;-82
2021/05/12 04:17:43;;;;;;;8.18;4.05;;;;;;;8.93;100.00;100965.51;1552383;92;21091;-82
2021/05/12 04:20:13;;;;;;;10.50;4.35;;;;;;;8.90;100.00;100956.58;1552034;92;21235;-83
2021/05/12 04:22:40;;;;;;;11.83;4.33;;;;;;;9.07;100.00;100956.64;1561841;90;21224;-84
2021/05/12 04:25:11;;;;;;;8.23;3.90;;;;;;;9.20;100.00;100961.70;1550596;90;21234;-82
2021/05/12 04:27:37;;;;;;;9.10;4.37;;;;;;;9.12;100.00;100961.28;1545530;92;21695;-82
2021/05/12 04:30:09;;;;;;;10.10;3.85;;;;;;;9.03;100.00;100956.31;1545461;91;21189;-82
2021/05/12 04:32:35;;;;;;;7.22;4.17;;;;;;;9.20;100.00;100962.23;1545339;92;21209;-82
2021/05/12 04:35:03;;;;;;;7.80;4.25;;;;;;;9.23;100.00;100959.06;1526907;90;21191;-82
2021/05/12 04:37:29;;;;;;;8.35;4.03;;;;;;;9.26;100.00;100959.39;1571434;91;21211;-82
2021/05/12 04:39:55;;;;;;;7.20;2.72;;;;;;;9.10;100.00;100962.34;1571512;91;20988;-83
2021/05/12 04:42:21;;;;;;;7.42;3.77;;;;;;;8.98;100.00;100957.55;1571477;91;21238;-82
2021/05/12 04:44:46;;;;;;;10.20;3.92;;;;;;;9.08;100.00;100965.79;1593232;86;21072;-81
2021/05/12 04:47:13;;;;;;;6.33;3.15;;;;;;;9.09;100.00;100959.37;1652922;86;21796;-82
2021/05/12 04:49:39;;;;;;;10.18;4.60;;;;;;;9.10;100.00;100960.19;1634140;86;21502;-82
2021/05/12 04:52:05;;;;;;;9.30;4.00;;;;;;;9.11;100.00;100963.16;1653170;86;21449;-81
2021/05/12 04:54:31;;;;;;;8.58;4.67;;;;;;;9.02;100.00;100947.12;1653205;86;21609;-82
2021/05/12 04:56:57;;;;;;;10.18;3.72;;;;;;;9.23;100.00;100967.94;1653222;85;21002;-81
2021/05/12 04:59:23;;;;;;;12.07;5.42;;;;;;;9.21;100.00;100967.92;1653231;86;21199;-83
2021/05/12 05:01:49;;;;;;;7.70;4.15;;;;;;;9.38;100.00;100963.36;1653110;86;20974;-84
2021/05/12 05:04:18;;;;;;;9.28;4.95;;;;;;;9.32;100.00;100967.02;1653089;85;21221;-82
2021/05/12 05:06:44;;;;;;;9.40;5.00;;;;;;;9.42;100.00;100972.59;1653176;86;21286;-83
2021/05/12 05:09:10;;;;;;;8.48;3.62;;;;;;;9.52;100.00;100971.41;1651749;86;21161;-82
2021/05/12 05:11:36;;;;;;;9.55;4.75;;;;;;;9.25;100.00;100973.09;1653202;86;21483;-83
2021/05/12 05:14:04;;;;;;;10.13;5.55;;;;;;;9.12;100.00;100970.69;1652946;86;20919;-82
2021/05/12 05:16:32;;;;;;;11.03;4.67;;;;;;;9.04;100.00;100966.53;1653257;86;21164;-85
2021/05/12 05:18:58;;;;;;;13.00;5.50;;;;;;;9.31;100.00;100972.94;1652966;86;21062;-82
2021/05/12 05:21:26;;;;;;;9.98;5.62;;;;;;;9.06;100.00;100976.53;1648711;86;21179;-83
2021/05/12 05:23:54;;;;;;;12.68;6.75;;;;;;;9.34;100.00;100977.02;1609679;87;21244;-82
2021/05/12 05:26:20;;;;;;;13.98;4.92;;;;;;;9.30;100.00;100981.27;1624953;87;21175;-82
2021/05/12 05:28:47;;;;;;;13.75;6.03;;;;;;;9.18;100.00;100979.16;1622177;86;21110;-83
2021/05/12 05:31:13;;;;;;;10.50;5.30;;;;;;;9.23;100.00;100974.67;1614656;88;21171;-83
2021/05/12 05:33:39;;;;;;;9.40;3.90;;;;;;;9.35;100.00;100979.98;1620988;86;21195;-82
2021/05/12 05:36:07;;;;;;;9.08;4.85;;;;;;;9.45;100.00;100985.56;1642496;86;21182;-83
2021/05/12 05:38:33;;;;;;;8.28;4.60;;;;;;;9.57;100.00;100973.39;1649086;86;21181;-83
2021/05/12 05:40:59;;;;;;;8.85;4.30;;;;;;;9.71;100.00;100972.02;1648773;87;21093;-84
2021/05/12 05:43:27;;;;;;;8.83;4.55;;;;;;;10.25;100.00;100984.93;1648581;87;21677;-82
2021/05/12 05:45:53;;;;;;;7.97;5.10;;;;;;;10.53;100.00;100971.04;1648037;87;21161;-82
2021/05/12 05:48:19;;;;;;;10.38;4.75;;;;;;;10.63;100.00;100970.64;1648834;87;21188;-82
2021/05/12 05:50:45;;;;;;;11.93;4.45;;;;;;;10.55;100.00;100967.57;1640737;86;21635;-83
2021/05/12 05:53:11;;;;;;;18.02;4.53;;;;;;;10.26;100.00;100977.12;1650164;86;20970;-85
2021/05/12 05:55:37;;;;;;;12.45;6.25;;;;;;;10.03;100.00;100978.67;1649921;86;20977;-82
2021/05/12 05:58:03;;;;;;;12.78;6.37;;;;;;;10.23;100.00;100978.97;1636691;86;21060;-82
2021/05/12 06:00:29;;;;;;;14.38;5.97;;;;;;;10.11;100.00;100978.25;1644493;86;21260;-82
2021/05/12 06:02:54;;;;;;;10.93;5.58;;;;;;;10.17;100.00;100974.03;1631747;86;21055;-81
2021/05/12 06:05:21;;;;;;;11.88;5.17;;;;;;;10.27;100.00;100977.45;1642333;86;21038;-82
2021/05/12 06:07:47;;;;;;;10.93;5.03;;;;;;;10.25;100.00;100968.77;1649616;86;21150;-82
2021/05/12 06:10:13;;;;;;;13.28;7.10;;;;;;;10.13;100.00;100978.30;1649712;86;21578;-82
2021/05/12 06:12:39;;;;;;;10.20;5.62;;;;;;;10.43;100.00;100979.28;1654513;85;21262;-82
2021/05/12 06:15:06;;;;;;;18.20;6.20;;;;;;;10.26;100.00;100979.00;1654276;86;21050;-86
2021/05/12 06:17:33;;;;;;;11.70;5.92;;;;;;;10.42;100.00;100979.55;1654529;86;21176;-82
2021/05/12 06:19:59;;;;;;;11.15;4.55;;;;;;;10.36;100.00;100966.53;1654511;86;21004;-83
2021/05/12 06:22:25;;;;;;;10.30;5.22;;;;;;;10.27;100.00;100964.52;1654519;86;21141;-81
2021/05/12 06:24:51;;;;;;;7.97;3.52;;;;;;;10.29;100.00;100959.69;1654581;86;21255;-83
2021/05/12 06:27:19;;;;;;;7.67;4.50;;;;;;;10.05;100.00;100960.39;1654512;86;21605;-81
2021/05/12 06:29:45;;;;;;;10.35;3.45;;;;;;;9.97;100.00;100963.80;1634294;87;21671;-84
2021/05/12 06:32:11;;;;;;;7.87;3.62;;;;;;;9.91;100.00;100980.95;1645550;86;20964;-82
2021/05/12 06:34:37;;;;;;;8.35;3.95;;;;;;;9.87;100.00;100965.52;1627149;87;21211;-83
2021/05/12 06:37:03;;;;;;;9.00;3.50;;;;;;;9.83;100.00;100954.97;1667134;84;21241;-83
2021/05/12 06:39:29;;;;;;;13.45;4.00;;;;;;;9.82;100.00;100968.13;1666880;84;21214;-83
2021/05/12 06:41:56;;;;;;;9.95;5.17;;;;;;;9.84;100.00;100966.81;1666572;86;21017;-83
2021/05/12 06:44:24;;;;;;;7.33;4.30;;;;;;;9.96;100.00;100970.23;1662633;84;21191;-82
2021/05/12 06:46:51;;;;;;;9.25;5.20;;;;;;;9.97;100.00;100962.97;1666527;86;21147;-83
2021/05/12 06:49:18;;;;;;;9.83;5.67;;;;;;;9.79;100.00;100970.77;1666454;86;21199;-83
2021/05/12 06:51:45;;;;;;;13.40;4.92;;;;;;;9.94;100.00;100965.64;1672218;84;21080;-82
2021/05/12 06:54:11;;;;;;;13.22;6.15;;;;;;;9.79;100.00;100966.73;1674614;84;21651;-82
2021/05/12 06:56:37;;;;;;;12.50;4.97;;;;;;;9.88;100.00;100962.59;1694417;84;21215;-82
2021/05/12 06:59:03;;;;;;;14.23;5.40;;;;;;;10.09;100.00;100966.91;1694409;84;21229;-83
2021/05/12 07:01:30;;;;;;;8.35;4.03;;;;;;;10.23;100.00;100966.34;1694601;84;21572;-83
2021/05/12 07:03:56;;;;;;;9.00;4.17;;;;;;;10.49;100.00;100962.64;1694595;84;21490;-85
2021/05/12 07:06:22;;;;;;;13.32;5.47;;;;;;;10.59;100.00;100953.36;1694605;84;21156;-83
2021/05/12 07:08:50;;;;;;;9.60;4.65;;;;;;;10.84;100.00;100943.93;1694491;84;21588;-83
2021/05/12 07:11:16;;;;;;;8.35;3.85;;;;;;;10.94;100.00;100941.87;1661194;84;21137;-83
2021/05/12 07:13:42;;;;;;;7.40;3.60;;;;;;;10.68;100.00;100939.72;1659335;84;21968;-83
2021/05/12 07:16:08;;;;;;;7.78;3.92;;;;;;;10.61;100.00;100955.25;1665243;85;21145;-87
2021/05/12 07:18:34;;;;;;;5.35;3.40;;;;;;;10.41;100.00;100969.81;1666651;86;21136;-83
2021/05/12 07:21:00;;;;;;;6.15;3.58;;;;;;;10.43;100.00;100948.83;1666267;86;21020;-82
2021/05/12 07:23:28;;;;;;;7.05;4.40;;;;;;;10.76;100.00;100949.77;1656459;86;20970;-82
2021/05/12 07:25:55;;;;;;;7.33;4.35;;;;;;;10.81;100.00;100944.44;1664985;86;21137;-82
2021/05/12 07:28:24;;;;;;;7.65;3.90;;;;;;;10.97;100.00;100944.05;1666518;86;21203;-87
2021/05/12 07:30:49;;;;;;;7.37;4.45;;;;;;;10.91;100.00;100939.14;1664427;84;21191;-83
2021/05/12 07:33:18;;;;;;;6.15;3.50;;;;;;;10.85;100.00;100938.81;1635848;86;21029;-84
2021/05/12 07:35:46;;;;;;;5.58;3.00;;;;;;;10.91;100.00;100945.37;1662742;86;21146;-85
2021/05/12 07:38:12;;;;;;;10.80;2.98;;;;;;;10.33;100.00;100956.25;1642945;86;21340;-84
2021/05/12 07:40:38;;;;;;;6.40;4.30;;;;;;;10.32;100.00;100942.48;1646553;85;21153;-84
2021/05/12 07:43:09;;;;;;;6.08;3.60;;;;;;;10.28;100.00;100937.86;1654229;85;20996;-85
2021/05/12 07:45:36;;;;;;;7.62;3.20;;;;;;;10.18;100.00;100936.63;1656669;85;21545;-85
2021/05/12 07:48:05;;;;;;;9.28;3.90;;;;;;;10.25;100.00;100937.80;1651203;85;21451;-84
2021/05/12 07:50:31;;;;;;;8.98;3.85;;;;;;;10.29;100.00;100939.48;1654428;85;21228;-85
2021/05/12 07:53:01;;;;;;;5.20;3.47;;;;;;;10.38;100.00;100937.47;1655103;85;21682;-84
2021/05/12 07:55:28;;;;;;;5.20;2.87;;;;;;;10.59;100.00;100942.58;1656841;85;21177;-86
2021/05/12 07:57:56;;;;;;;8.33;3.02;;;;;;;10.37;100.00;100958.72;1613677;86;21566;-85
2021/05/12 08:00:23;;;;;;;9.08;3.92;;;;;;;10.41;100.00;100946.91;1625291;86;21090;-84
2021/05/12 08:02:49;;;;;;;5.53;3.65;;;;;;;10.63;100.00;100935.61;1603410;88;21245;-84
2021/05/12 08:05:15;;;;;;;4.78;3.55;;;;;;;10.76;100.00;100932.23;1603309;89;21774;-84
2021/05/12 08:07:42;;;;;;;5.37;2.50;;;;;;;10.94;100.00;100923.80;1603255;88;21258;-86
2021/05/12 08:10:10;;;;;;;3.08;2.10;;;;;;;10.68;100.00;100937.56;1592446;88;21148;-88
2021/05/12 08:12:36;;;;;;;5.58;2.83;;;;;;;10.57;100.00;100925.03;1603699;89;21617;-86
2021/05/12 08:15:03;;;;;;;6.08;2.40;;;;;;;10.57;100.00;100928.53;1603280;89;21112;-87
2021/05/12 08:17:29;;;;;;;4.55;2.33;;;;;;;10.80;100.00;100922.06;1603233;89;21604;-87
2021/05/12 08:19:57;;;;;;;4.47;2.37;;;;;;;10.88;100.00;100918.08;1610591;87;20941;-85
2021/05/12 08:22:23;;;;;;;5.55;2.50;;;;;;;11.24;100.00;100907.13;1636830;87;21722;-85
2021/05/12 08:24:49;;;;;;;4.20;2.55;;;;;;;11.17;100.00;100922.69;1632313;87;21108;-86
2021/05/12 08:27:15;;;;;;;5.03;2.58;;;;;;;10.97;100.00;100907.14;1632085;86;21754;-84
2021/05/12 08:29:43;;;;;;;4.60;2.70;;;;;;;10.77;100.00;100907.74;1623292;87;20941;-86
2021/05/12 08:32:11;;;;;;;3.92;2.72;;;;;;;11.01;100.00;100910.14;1620485;87;21627;-85
2021/05/12 08:34:37;;;;;;;3.65;2.12;;;;;;;10.88;100.00;100912.18;1629884;87;21096;-89
2021/05/12 08:37:04;;;;;;;6.03;2.25;;;;;;;10.48;100.00;100909.83;1630095;86;21206;-86
2021/05/12 08:39:30;;;;;;;7.55;3.30;;;;;;;10.36;100.00;100923.42;1625103;88;21196;-89
2021/05/12 08:41:58;;;;;;;5.95;3.08;;;;;;;10.04;100.00;100916.50;1599494;88;21164;-94
2021/05/12 08:44:25;;;;;;;6.80;3.50;;;;;;;9.80;100.00;100911.05;1612404;87;21126;-90
2021/05/12 08:46:52;;;;;;;6.20;4.00;;;;;;;10.08;100.00;100916.81;1600860;89;21172;-92
2021/05/12 08:49:21;;;;;;;11.73;4.45;;;;;;;9.83;100.00;100914.05;1623725;87;21224;-92
2021/05/12 08:51:47;;;;;;;6.87;3.45;;;;;;;9.67;100.00;100918.91;1630169;88;21631;-93
2021/05/12 08:54:14;;;;;;;6.62;4.00;;;;;;;9.55;100.00;100918.46;1630487;87;21063;-95
2021/05/12 08:56:41;;;;;;;9.63;4.33;;;;;;;9.65;100.00;100923.74;1630652;88;21146;-92
2021/05/12 08:59:17;;;;;;;;;;;;;;;;;;;;;
2021/05/12 09:01:35;;;;;;;8.53;3.33;;;;;;;9.72;100.00;100913.61;1559383;90;21196;-92
2021/05/12 09:04:03;;;;;;;11.33;3.75;;;;;;;9.67;100.00;100910.30;1557997;91;22170;-92
2021/05/12 09:06:33;;;;;;;15.30;4.50;;;;;;;9.82;100.00;100908.37;1557707;90;21128;-92
2021/05/12 09:09:00;;;;;;;10.08;4.17;;;;;;;10.04;100.00;100897.66;1560847;90;21224;-92
2021/05/12 09:11:27;;;;;;;13.70;4.30;;;;;;;10.24;100.00;100905.20;1557482;91;21251;-87
2021/05/12 09:13:53;;;;;;;8.58;3.60;;;;;;;10.97;100.00;100886.92;1567896;90;22181;-87
2021/05/12 09:16:29;;;;;;;6.22;2.60;;;;;;;11.62;100.00;100890.42;1562933;89;21305;-87
2021/05/12 09:19:08;;;;;;;2.83;1.22;;;;;;;12.08;100.00;100878.56;1549791;90;21311;-91
2021/05/12 09:22:00;;;;;;;2.58;1.30;;;;;;;12.34;100.00;100866.52;1548400;90;21974;-88
2021/05/12 09:24:38;;;;;;;2.83;1.20;;;;;;;12.69;100.00;100862.56;1537695;91;21198;-88
2021/05/12 09:27:12;;;;;;;4.60;1.40;;;;;;;13.27;100.00;100870.52;1519204;93;21108;-84
2021/05/12 09:29:42;;;;;;;3.40;1.80;;;;;;;13.12;100.00;100859.12;1509791;93;21293;-85
2021/05/12 09:32:15;;;;;;;2.52;1.65;;;;;;;13.47;100.00;100860.74;1527003;92;21297;-87
2021/05/12 09:35:03;;;;;;;2.95;1.70;;;;;;;13.14;100.00;100854.23;1482737;95;21172;-85
2021/05/12 09:37:32;;;;;;;3.37;1.50;;;;;;;12.08;100.00;100839.39;1490355;94;21258;-87
2021/05/12 09:40:03;;;;;;;3.67;1.80;;;;;;;12.08;100.00;100839.39;1488133;95;21234;-88
2021/05/12 09:42:28;;;;;;;4.50;2.10;;;;;;;12.28;100.00;100857.58;1489763;93;22693;-88
2021/05/12 09:45:11;;;;;;;4.35;1.60;;;;;;;12.08;100.00;100862.89;1518749;94;21689;-87
2021/05/12 09:47:37;;;;;;;2.37;1.65;;;;;;;11.97;100.00;100848.52;1498949;92;21308;-88
2021/05/12 09:50:20;;;;;;;3.85;1.50;;;;;;;12.93;100.00;100843.94;1504907;94;21214;-91
2021/05/12 09:52:45;;;;;;;6.70;2.02;;;;;;;12.80;100.00;100852.59;1443818;96;21678;-85
2021/05/12 09:55:16;;;;;;;4.17;1.67;;;;;;;12.79;100.00;100842.03;1487401;96;21292;-85
2021/05/12 09:58:05;;;;;;;3.10;1.92;;;;;;;12.82;100.00;100819.30;1487430;96;21234;-85
2021/05/12 10:00:34;;;;;;;9.48;3.52;;;;;;;12.82;100.00;100819.30;1482151;95;21222;-86
2021/05/12 10:03:03;;;;;;;7.60;2.40;;;;;;;12.53;100.00;100837.94;1481509;95;21229;-84
2021/05/12 10:06:02;;;;;;;7.03;2.33;;;;;;;12.56;100.00;100836.05;1506302;93;21282;-86
2021/05/12 10:08:34;;;;;;;3.80;2.10;;;;;;;12.87;100.00;100840.16;1502275;93;21261;-86
2021/05/12 10:11:03;;;;;;;6.35;2.00;;;;;;;13.52;100.00;100830.41;1463093;96;21663;-86
2021/05/12 10:13:32;;;;;;;2.80;1.22;;;;;;;13.14;100.00;100820.95;1468256;96;21352;-89
2021/05/12 10:15:59;;;;;;;3.92;1.77;;;;;;;12.90;100.00;100821.48;1469846;96;21289;-86
2021/05/12 10:18:26;;;;;;;4.53;1.72;;;;;;;13.17;100.00;100823.11;1459081;96;21309;-86
2021/05/12 10:20:58;;;;;;;2.42;1.52;;;;;;;13.53;100.00;100817.16;1456871;96;21281;-87
2021/05/12 10:23:26;;;;;;;3.10;1.42;;;;;;;13.77;100.00;100811.14;1460546;96;21090;-91
2021/05/12 10:25:52;;;;;;;1.70;1.30;;;;;;;14.11;100.00;100814.53;1433516;96;21544;-88
2021/05/12 10:28:19;;;;;;;4.58;1.60;;;;;;;13.50;100.00;100827.19;1433899;98;21708;-89
2021/05/12 10:30:49;;;;;;;2.60;1.37;;;;;;;12.77;100.00;100836.09;1434090;97;21324;-86
2021/05/12 10:33:16;;;;;;;6.67;1.80;;;;;;;12.47;100.00;100820.89;1436674;98;21393;-88
2021/05/12 10:35:43;;;;;;;2.67;1.45;;;;;;;12.36;100.00;100819.78;1430746;97;21236;-86
2021/05/12 10:38:32;;;;;;;4.53;2.02;;;;;;;12.49;100.00;100818.72;1436186;97;21227;-85
2021/05/12 10:40:58;;;;;;;4.62;2.00;;;;;;;12.52;100.00;100816.02;1446287;97;21727;-84
2021/05/12 10:43:32;;;;;;;3.08;2.05;;;;;;;12.33;100.00;100806.26;1459221;98;21300;-87
2021/05/12 10:46:12;;;;;;;3.70;1.72;;;;;;;12.31;100.00;100802.20;1453780;98;21208;-85
2021/05/12 10:48:47;;;;;;;;;;;;;;;12.49;100.00;100796.28;1463060;96;21317;-85
2021/05/12 10:51:30;;;;;;;4.85;2.40;;;;;;;12.53;100.00;100790.63;1467266;96;20334;-84
2021/05/12 10:54:03;;;;;;;4.22;1.70;;;;;;;13.10;100.00;100796.33;1460399;97;21239;-89
2021/05/12 10:56:38;;;;;;;2.58;1.40;;;;;;;12.94;100.00;100796.05;1476754;95;21972;-87
2021/05/12 10:59:11;;;;;;;6.97;1.98;;;;;;;12.94;100.00;100812.28;1420032;99;22238;-85
2021/05/12 11:01:49;;;;;;;3.57;1.80;;;;;;;12.97;100.00;100818.53;1435579;99;21328;-91
2021/05/12 11:04:18;;;;;;;2.17;1.60;;;;;;;12.63;100.00;100826.33;1433168;99;21302;-85
2021/05/12 11:07:04;;;;;;;5.70;2.10;;;;;;;12.50;100.00;100800.63;1439971;97;21364;-84
2021/05/12 11:09:43;;;;;;;2.33;1.55;;;;;;;12.45;100.00;100806.02;1476937;96;21229;-85
2021/05/12 11:12:15;;;;;;;4.05;1.92;;;;;;;12.48;100.00;100802.78;1468270;96;21230;-88
2021/05/12 11:14:44;;;;;;;4.05;1.80;;;;;;;12.25;100.00;100800.82;1407201;99;21265;-85
2021/05/12 11:17:18;;;;;;;5.03;2.02;;;;;;;12.24;100.00;100793.00;1419257;98;21305;-85
2021/05/12 11:19:50;;;;;;;6.37;2.45;;;;;;;12.40;100.00;100804.64;1444183;98;21585;-89
2021/05/12 11:25:22;;;;;;;6.90;1.80;;;;;;;12.13;100.00;100812.95;1426675;96;21159;-85
2021/05/12 11:33:30;;;;;;;6.35;1.90;;;;;;;11.99;100.00;100839.63;1460684;98;21269;-86
2021/05/12 11:36:02;;;;;;;4.47;1.82;;;;;;;11.73;100.00;100822.44;1459346;94;21295;-84